Time;durP1;ratioP1;P1;durP2;ratioP2;P2;SDS_P1;SDS_P2;PMS_P1;PMS_P2;Temp;Humidity;BMP_temperature;BMP_pressure;BME280_temperature;BME280_humidity;BME280_pressure;Samples;Min_cycle;Max_cycle;Signal;HPM_P1;HPM_P2
2023/04/25 00:21:42;;;;;;;;;;;;;;;;;;;;;
2023/04/25 00:25:29;;;;;;;;;;;;;;;;;;;;;
2023/04/25 01:14:16;;;;;;;2.67;2.47;;;;;;;6.85;83.30;94910.41;4861192;29;20260;-80
2023/04/25 04:18:03;;;;;;;;;;;;;;;;;;;;;
2023/04/25 04:24:27;;;;;;;6.17;5.57;;;;;;;6.82;88.60;94869.41;4829670;29;20265;-80
2023/04/25 05:17:10;;;;;;;5.67;4.83;;;;;;;6.81;87.42;94883.25;4992389;28;20209;-83
2023/04/25 05:19:55;;;;;;;5.57;5.07;;;;;;;6.70;87.01;94884.22;5028694;28;20598;-83
2023/04/25 05:22:42;;;;;;;6.37;5.77;;;;;;;6.67;87.30;94894.00;5011003;28;20194;-82
2023/04/25 05:25:23;;;;;;;;;;;;;;;;;;;;;
2023/04/25 05:27:54;;;;;;;8.07;4.67;;;;;;;6.75;87.51;94888.97;5024718;28;21039;-82
2023/04/25 05:30:19;;;;;;;6.23;4.13;;;;;;;6.73;87.36;94896.03;5031080;28;20581;-83
2023/04/25 05:32:48;;;;;;;5.03;4.63;;;;;;;6.65;87.52;94889.00;5020997;28;20217;-82
2023/04/25 05:35:19;;;;;;;5.73;4.53;;;;;;;6.76;87.04;94886.25;5024881;28;20202;-83
2023/04/25 05:37:47;;;;;;;7.17;4.23;;;;;;;6.72;86.85;94891.84;5032165;28;20251;-81
2023/04/25 05:40:27;;;;;;;4.43;4.03;;;;;;;6.72;86.76;94895.25;5024401;28;20184;-80
2023/04/25 05:43:00;;;;;;;6.17;5.57;;;;;;;6.90;86.53;94900.47;4997203;28;20566;-81
2023/04/25 05:45:25;;;;;;;6.67;5.97;;;;;;;7.01;86.82;94910.63;5023702;28;20191;-82
2023/04/25 05:48:01;;;;;;;4.73;4.33;;;;;;;6.94;86.29;94904.41;5008010;28;20695;-82
2023/04/25 05:50:47;;;;;;;5.40;4.67;;;;;;;6.94;86.71;94903.59;5015831;28;20181;-82
2023/04/25 05:53:30;;;;;;;5.23;4.73;;;;;;;6.92;86.76;94900.34;5037465;28;20198;-80
2023/04/25 05:55:59;;;;;;;7.53;4.90;;;;;;;7.08;86.46;94901.38;5022054;28;20286;-81
2023/04/25 05:58:30;;;;;;;4.57;4.00;;;;;;;7.05;86.28;94891.31;5012208;28;20221;-82
2023/04/25 06:01:05;;;;;;;4.80;4.40;;;;;;;7.23;85.65;94898.28;5028737;28;20590;-83
2023/04/25 06:03:46;;;;;;;4.67;4.10;;;;;;;7.19;85.64;94894.38;5020956;28;20190;-82
2023/04/25 06:06:45;;;;;;;4.57;4.07;;;;;;;6.80;87.58;94899.66;4992685;28;20199;-81
2023/04/25 06:09:41;;;;;;;4.63;4.10;;;;;;;7.05;87.54;94906.78;4969169;28;20245;-81
2023/04/25 06:12:25;;;;;;;6.47;4.77;;;;;;;7.08;87.24;94900.56;4959277;28;20228;-82
2023/04/25 06:15:17;;;;;;;4.63;3.77;;;;;;;7.10;88.26;94903.81;4970194;28;21152;-82
2023/04/25 06:17:58;;;;;;;5.63;4.90;;;;;;;7.25;87.34;94911.91;4986043;28;20729;-82
2023/04/25 06:20:44;;;;;;;5.30;4.50;;;;;;;7.02;88.66;94909.66;4960684;28;20206;-81
2023/04/25 06:23:37;;;;;;;5.10;4.60;;;;;;;6.87;89.36;94908.47;4961096;28;20258;-82
2023/04/25 06:26:47;;;;;;;;;;;;;;;;;;;;;
2023/04/25 06:29:48;;;;;;;5.13;4.57;;;;;;;6.98;89.38;94903.19;4973847;28;20207;-83
2023/04/25 06:32:39;;;;;;;4.87;4.37;;;;;;;6.93;89.17;94907.13;4930670;29;20277;-82
2023/04/25 06:35:28;;;;;;;5.47;4.90;;;;;;;6.85;89.20;94900.06;4902463;29;20564;-82
2023/04/25 06:38:47;;;;;;;16.07;8.50;;;;;;;6.78;90.14;94906.75;4964974;28;20875;-83
2023/04/25 06:42:00;;;;;;;13.13;8.10;;;;;;;6.99;89.41;94906.56;4943248;28;20586;-81
2023/04/25 06:45:11;;;;;;;10.60;6.70;;;;;;;6.96;89.34;94907.63;4884024;29;20238;-82
2023/04/25 06:51:15;;;;;;;;;;;;;;;;;;;;;
2023/04/25 07:03:41;;;;;;;5.50;4.90;;;;;;;7.39;88.39;94909.63;4871570;29;20199;-83
2023/04/25 07:07:06;;;;;;;;;;;;;;;;;;;;;
2023/04/25 07:34:08;;;;;;;;;;;;;;;;;;;;;
2023/04/25 07:44:10;;;;;;;4.73;4.33;;;;;;;7.73;86.63;94934.09;4910678;29;20226;-82
2023/04/25 07:47:16;;;;;;;5.43;4.93;;;;;;;7.77;86.95;94938.00;4866885;29;20226;-81
2023/04/25 07:50:23;;;;;;;5.23;4.63;;;;;;;7.71;87.30;94947.16;4883476;29;20208;-81
2023/04/25 08:01:22;;;;;;;;;;;;;;;;;;;;;
2023/04/25 08:11:58;;;;;;;;;;;;;;;;;;;;;
2023/04/25 08:32:30;;;;;;;7.70;6.90;;;;;;;7.15;89.74;95007.47;4650499;30;20248;-79
2023/04/25 08:39:04;;;;;;;4.00;3.60;;;;;;;7.18;88.70;95019.28;4698340;30;20261;-83
2023/04/25 08:42:07;;;;;;;6.47;5.87;;;;;;;6.90;89.12;95016.63;4758107;30;20354;-83
2023/04/25 08:45:15;;;;;;;5.87;5.20;;;;;;;7.14;90.27;95021.31;4782103;29;20199;-83
2023/04/25 08:48:16;;;;;;;5.00;4.50;;;;;;;7.28;89.12;95033.00;4757592;30;20266;-82
2023/04/25 08:53:57;;;;;;;2.47;2.20;;;;;;;6.81;88.24;95031.19;4845407;29;20216;-83
2023/04/25 08:56:41;;;;;;;;;;;;;;;;;;;;;
2023/04/25 08:59:21;;;;;;;3.13;2.70;;;;;;;7.33;88.00;95041.13;4922509;29;20373;-82
2023/04/25 09:02:21;;;;;;;3.10;2.43;;;;;;;7.09;86.49;95042.41;4928725;29;20197;-83
2023/04/25 09:04:47;;;;;;;3.00;2.70;;;;;;;7.14;86.66;95048.91;4924330;29;20206;-83
2023/04/25 09:08:02;;;;;;;3.73;2.70;;;;;;;7.26;86.69;95053.00;4918904;28;20782;-83
2023/04/25 09:10:44;;;;;;;3.57;3.27;;;;;;;7.45;86.87;95047.78;5009718;28;20204;-83
2023/04/25 09:13:51;;;;;;;;;;;;;;;;;;;;;
2023/04/25 09:17:12;;;;;;;2.63;2.13;;;;;;;7.32;86.91;95057.56;5006961;28;20213;-83
2023/04/25 09:23:52;;;;;;;;;;;;;;;;;;;;;
2023/04/25 09:27:26;;;;;;;1.80;1.70;;;;;;;7.35;86.31;95072.81;4872081;29;20214;-82
2023/04/25 09:30:50;;;;;;;1.70;1.60;;;;;;;7.27;87.39;95075.28;4788049;29;20210;-83
2023/04/25 09:33:45;;;;;;;2.73;2.10;;;;;;;7.79;85.14;95081.66;4811061;29;20210;-82
2023/04/25 09:39:58;;;;;;;;;;;;;;;;;;;;;
2023/04/25 09:43:00;;;;;;;16.17;10.53;;;;;;;8.08;83.97;95091.06;4749855;30;20220;-81
2023/04/25 09:46:00;;;;;;;4.47;3.07;;;;;;;8.20;81.81;95095.88;4734681;30;20211;-82
2023/04/25 09:52:11;;;;;;;10.73;7.17;;;;;;;8.06;82.94;95103.31;4756105;30;20208;-83
2023/04/25 09:55:17;;;;;;;1.80;1.50;;;;;;;8.03;83.92;95107.00;4758891;30;20841;-82
2023/04/25 09:58:33;;;;;;;3.53;2.73;;;;;;;8.26;83.00;95111.81;4743863;29;20264;-82
2023/04/25 10:01:26;;;;;;;2.73;1.93;;;;;;;8.57;82.38;95115.75;4786702;29;20217;-82
2023/04/25 10:04:35;;;;;;;2.40;2.20;;;;;;;8.65;82.07;95115.00;4790293;29;20642;-82
2023/04/25 10:10:38;;;;;;;;;;;;;;;;;;;;;
2023/04/25 10:13:39;;;;;;;0.90;0.90;;;;;;;9.20;78.96;95136.41;4850756;29;20581;-82
2023/04/25 10:16:41;;;;;;;1.00;0.90;;;;;;;9.08;78.48;95129.81;4862310;29;20255;-82
2023/04/25 10:19:53;;;;;;;;;;;;;;;;;;;;;
2023/04/25 10:23:16;;;;;;;;;;;;;;;;;;;;;
2023/04/25 10:25:57;;;;;;;0.60;0.60;;;;;;;8.74;77.17;95148.59;4926726;29;20221;-82
2023/04/25 11:16:15;;;;;;;7.93;6.53;;;;;;;7.12;82.20;95219.47;6049230;23;20408;-82
2023/04/25 11:18:41;;;;;;;7.77;5.47;;;;;;;7.24;81.14;95215.81;4989070;28;20753;-83
2023/04/25 11:21:07;;;;;;;4.63;4.23;;;;;;;7.48;80.73;95215.41;4989837;28;20266;-82
2023/04/25 11:23:32;;;;;;;6.90;6.17;;;;;;;7.67;82.01;95217.16;4988535;28;20211;-81
2023/04/25 11:25:57;;;;;;;7.73;5.67;;;;;;;7.56;81.43;95214.72;4986764;28;20225;-82
2023/04/25 11:28:47;;;;;;;6.77;4.80;;;;;;;7.54;81.42;95211.47;5003352;28;21054;-83
2023/04/25 11:44:48;;;;;;;6.00;5.10;;;;;;;7.86;80.08;95213.72;5007183;28;20711;-81
2023/04/25 11:49:48;;;;;;;6.07;5.47;;;;;;;7.84;80.06;95213.88;5032136;23;20807;-83
2023/04/25 11:52:14;;;;;;;10.97;8.80;;;;;;;8.17;79.98;95219.53;4996206;28;20191;-81
2023/04/25 11:54:52;;;;;;;;;;;;;;;;;;;;;
2023/04/25 12:12:22;;;;;;;;;;;;;;;;;;;;;
2023/04/25 12:15:41;;;;;;;5.27;4.77;;;;;;;9.60;73.11;95234.41;4833700;29;20221;-82
2023/04/25 12:18:39;;;;;;;2.97;2.57;;;;;;;9.71;72.65;95238.56;4803688;29;20654;-82
2023/04/25 12:21:14;;;;;;;8.10;7.40;;;;;;;9.90;70.15;95238.41;4838321;29;20217;-82
2023/04/25 12:27:49;;;;;;;5.33;2.80;;;;;;;9.55;74.50;95241.03;4811215;29;20669;-81
2023/04/25 12:48:42;;;;;;;19.83;14.93;;;;;;;9.95;72.97;95253.50;4789737;29;20382;-80
2023/04/25 12:51:58;;;;;;;8.83;6.70;;;;;;;9.87;72.35;95262.03;4785591;29;20403;-80
2023/04/25 12:55:10;;;;;;;7.10;6.40;;;;;;;9.90;73.68;95264.34;4786018;29;20660;-83
2023/04/25 14:26:48;;;;;;;2.30;2.10;;;;;;;10.74;63.07;95283.72;5230832;23;20245;-85
2023/04/25 14:29:13;;;;;;;2.10;1.90;;;;;;;11.14;62.82;95284.88;4990486;28;20214;-82
2023/04/25 14:31:40;;;;;;;2.53;1.73;;;;;;;11.27;63.50;95295.63;4997428;28;20225;-85
2023/04/25 14:34:05;;;;;;;1.80;1.70;;;;;;;11.28;62.46;95292.06;5010035;28;20186;-83
2023/04/25 14:36:33;;;;;;;1.70;1.60;;;;;;;11.37;61.42;95291.09;5002697;28;20199;-84
2023/04/25 14:38:59;;;;;;;2.83;2.50;;;;;;;11.20;61.05;95290.22;4994629;28;20203;-85
2023/04/25 15:27:57;;;;;;;9.87;7.40;;;;;;;11.17;61.98;95303.56;5920210;23;20234;-83
2023/04/25 15:33:51;;;;;;;12.67;7.70;;;;;;;11.00;63.47;95314.84;4951700;29;20204;-83
2023/04/25 15:36:21;;;;;;;142.60;74.07;;;;;;;10.56;63.31;95306.34;4917464;29;20217;-84
2023/04/25 15:38:46;;;;;;;76.50;40.60;;;;;;;10.87;61.54;95310.09;4932375;29;20265;-84
2023/04/25 15:41:14;;;;;;;144.57;72.60;;;;;;;11.04;63.20;95308.34;4922585;29;20229;-83
2023/04/25 15:43:40;;;;;;;86.03;44.97;;;;;;;10.98;62.32;95306.41;4922082;29;20201;-85
2023/04/25 15:46:05;;;;;;;229.10;111.70;;;;;;;11.23;63.24;95305.53;4929270;29;20181;-82
2023/04/25 15:48:36;;;;;;;43.53;24.07;;;;;;;11.10;62.76;95317.31;4936519;29;20345;-86
2023/04/25 15:51:06;;;;;;;10.73;8.70;;;;;;;11.38;62.99;95312.72;4914794;29;20263;-85
2023/04/25 15:53:31;;;;;;;6.73;6.13;;;;;;;11.15;62.98;95308.09;4925261;29;20277;-84
2023/04/25 15:55:57;;;;;;;8.03;7.00;;;;;;;11.02;60.76;95318.91;4935829;29;20336;-83
2023/04/25 17:08:53;;;;;;;7.60;6.00;;;;;;;7.94;86.19;95369.00;5724232;23;20707;-84
2023/04/25 17:11:35;;;;;;;6.83;5.80;;;;;;;7.86;86.58;95372.28;4994082;28;20684;-82
2023/04/25 17:18:28;;;;;;;;;;;;;;;;;;;;;
2023/04/25 17:25:40;;;;;;;4.53;4.13;;;;;;;6.80;88.60;95379.69;4926580;29;20225;-82
2023/04/25 17:39:26;;;;;;;7.50;4.63;;;;;;;6.72;88.23;95392.44;5014064;23;20233;-82
2023/04/25 17:42:27;;;;;;;5.57;4.40;;;;;;;7.03;88.14;95394.09;5001122;28;20194;-82
2023/04/25 17:45:14;;;;;;;6.70;5.17;;;;;;;7.07;87.63;95399.81;5015710;28;20196;-82
2023/04/25 17:50:31;;;;;;;6.17;5.50;;;;;;;7.03;88.37;95399.25;4940097;29;20212;-83
2023/04/25 17:53:34;;;;;;;6.73;5.10;;;;;;;7.02;87.82;95392.44;4934116;29;20264;-83
2023/04/25 17:56:15;;;;;;;5.73;5.00;;;;;;;7.05;88.45;95393.94;4937951;29;20695;-81
2023/04/25 18:02:50;;;;;;;;;;;;;;;;;;;;;
2023/04/25 18:05:21;;;;;;;8.13;5.93;;;;;;;7.01;87.88;95390.81;4945735;29;20213;-81
2023/04/25 18:07:56;;;;;;;7.63;5.53;;;;;;;6.98;88.49;95382.50;4932495;29;20216;-81
2023/04/25 18:10:45;;;;;;;7.73;5.60;;;;;;;6.79;89.01;95389.22;4934700;29;20669;-81
2023/04/25 18:14:06;;;;;;;;;;;;;;;;;;;;;
2023/04/25 18:17:29;;;;;;;10.97;8.07;;;;;;;6.82;89.07;95391.56;4926569;29;20233;-82
2023/04/25 18:24:27;;;;;;;;;;;;;;;;;;;;;
2023/04/25 19:54:50;;;;;;;;;;;;;;;;;;;;;
2023/04/25 21:04:38;;;;;;;10.47;8.23;;;;;;;6.59;86.16;95513.09;4621799;23;20239;-86
2023/04/25 21:07:04;;;;;;;16.30;9.60;;;;;;;6.57;85.79;95508.06;4977458;28;20178;-85
2023/04/25 21:09:29;;;;;;;14.33;9.37;;;;;;;6.55;85.55;95515.09;4971863;28;20199;-84
2023/04/25 21:11:54;;;;;;;15.93;9.63;;;;;;;6.57;85.33;95512.41;4966443;28;20191;-83
2023/04/25 21:14:21;;;;;;;14.60;9.60;;;;;;;6.59;84.82;95515.66;4974025;28;20665;-82
2023/04/25 21:16:46;;;;;;;13.90;9.40;;;;;;;6.61;84.84;95521.50;5004349;28;20199;-81
2023/04/25 21:19:12;;;;;;;11.47;9.10;;;;;;;6.59;84.52;95528.56;4992208;28;20278;-81
2023/04/25 21:21:37;;;;;;;14.03;9.63;;;;;;;6.59;84.20;95526.00;4962504;28;20529;-81
2023/04/25 21:24:06;;;;;;;12.53;8.77;;;;;;;6.58;83.73;95532.09;4977133;28;20195;-81
2023/04/25 21:26:31;;;;;;;14.43;8.70;;;;;;;6.57;83.85;95531.28;4995632;28;20184;-81
2023/04/25 21:28:56;;;;;;;11.90;8.33;;;;;;;6.60;83.87;95531.03;4975287;28;20218;-84
2023/04/25 21:31:22;;;;;;;13.07;8.90;;;;;;;6.59;83.86;95531.16;4993138;28;20215;-82
2023/04/25 21:33:47;;;;;;;10.43;7.67;;;;;;;6.57;83.87;95533.84;4977601;28;20626;-84
2023/04/25 21:36:12;;;;;;;10.83;7.80;;;;;;;6.61;83.39;95535.22;4975945;28;20219;-81
2023/04/25 21:38:37;;;;;;;11.83;8.37;;;;;;;6.56;83.35;95542.53;4974523;28;20212;-84
2023/04/25 21:41:03;;;;;;;16.07;8.57;;;;;;;6.57;82.86;95541.59;4978566;28;20191;-83
2023/04/25 21:43:29;;;;;;;10.70;7.87;;;;;;;6.59;82.93;95538.88;4971111;28;20699;-82
2023/04/25 21:45:54;;;;;;;12.53;8.73;;;;;;;6.56;82.97;95534.00;4971434;28;20176;-83
2023/04/25 21:48:20;;;;;;;13.17;7.80;;;;;;;6.57;82.81;95528.69;4964690;28;20242;-79
2023/04/25 21:50:45;;;;;;;8.83;7.43;;;;;;;6.56;82.33;95534.81;4974030;28;20704;-83
2023/04/25 21:53:11;;;;;;;11.53;8.37;;;;;;;6.58;82.81;95543.22;4974483;28;20199;-82
2023/04/25 21:55:36;;;;;;;12.47;7.47;;;;;;;6.56;83.14;95545.13;4967809;28;20207;-81
2023/04/25 21:58:02;;;;;;;10.33;8.00;;;;;;;6.55;83.04;95546.06;4967992;28;20310;-81
2023/04/25 22:00:27;;;;;;;9.33;6.80;;;;;;;6.55;82.67;95545.25;4971369;28;20197;-81
2023/04/25 22:02:54;;;;;;;7.83;7.03;;;;;;;6.59;82.67;95541.47;4978800;28;20678;-82
2023/04/25 22:05:21;;;;;;;13.03;7.57;;;;;;;6.58;82.62;95548.41;4979248;28;20184;-83
2023/04/25 22:07:49;;;;;;;13.00;7.17;;;;;;;6.53;82.42;95550.50;4976176;28;20204;-82
2023/04/25 22:10:15;;;;;;;8.80;7.10;;;;;;;6.51;82.19;95545.47;4962362;28;20183;-84
2023/04/25 22:12:40;;;;;;;9.00;6.07;;;;;;;6.55;82.31;95540.91;4975710;28;20190;-81
2023/04/25 22:15:07;;;;;;;7.67;6.17;;;;;;;6.57;82.12;95539.03;4975097;28;20179;-82
2023/04/25 22:17:33;;;;;;;8.23;6.37;;;;;;;6.56;82.65;95550.28;4994964;28;20254;-83
2023/04/25 22:19:58;;;;;;;9.40;6.57;;;;;;;6.56;81.75;95550.28;4990021;28;20184;-82
2023/04/25 22:22:24;;;;;;;10.67;6.43;;;;;;;6.59;82.00;95549.22;4994731;28;20192;-82
2023/04/25 22:24:49;;;;;;;11.80;6.87;;;;;;;6.56;82.66;95555.44;4967131;28;20258;-84
2023/04/25 22:27:14;;;;;;;9.47;6.43;;;;;;;6.51;82.75;95557.56;4985311;28;20210;-81
2023/04/25 22:29:40;;;;;;;9.20;6.90;;;;;;;6.53;82.75;95561.66;4972710;28;20200;-82
2023/04/25 22:32:06;;;;;;;10.83;6.20;;;;;;;6.50;83.02;95566.25;4979230;28;20258;-81
2023/04/25 22:34:31;;;;;;;11.43;6.33;;;;;;;6.50;82.43;95573.97;4975685;28;20262;-84
2023/04/25 22:36:57;;;;;;;7.33;6.30;;;;;;;6.51;82.88;95566.13;4982192;28;20203;-82
2023/04/25 22:39:22;;;;;;;10.50;6.67;;;;;;;6.50;83.06;95563.66;4961899;28;20267;-81
2023/04/25 22:41:47;;;;;;;7.80;6.40;;;;;;;6.45;83.20;95568.38;4977553;28;20555;-82
2023/04/25 22:44:13;;;;;;;7.93;6.07;;;;;;;6.42;82.49;95561.69;4978622;28;20187;-83
2023/04/25 22:46:38;;;;;;;12.40;6.10;;;;;;;6.45;82.79;95573.53;4971618;28;20245;-82
2023/04/25 22:49:04;;;;;;;8.93;6.20;;;;;;;6.44;82.42;95564.97;4976135;28;20255;-83
2023/04/25 22:51:29;;;;;;;10.47;6.30;;;;;;;6.43;82.83;95570.25;4977499;28;20183;-79
2023/04/25 22:53:55;;;;;;;8.23;5.13;;;;;;;6.37;82.48;95558.69;4995482;28;20194;-80
2023/04/25 22:56:21;;;;;;;9.33;5.97;;;;;;;6.38;82.81;95560.31;4973575;28;20204;-81
2023/04/25 22:58:48;;;;;;;10.20;6.07;;;;;;;6.33;82.78;95562.41;4965741;28;20242;-82
2023/04/25 23:01:15;;;;;;;10.37;5.27;;;;;;;6.20;82.34;95561.75;4971098;28;20310;-81
2023/04/25 23:03:42;;;;;;;5.97;4.77;;;;;;;6.28;81.46;95564.56;5005045;28;20290;-80
2023/04/25 23:06:07;;;;;;;8.90;5.20;;;;;;;6.25;81.00;95564.78;4973120;28;20207;-81
2023/04/25 23:08:34;;;;;;;5.63;4.90;;;;;;;6.24;81.19;95566.53;4974157;28;20254;-80
2023/04/25 23:10:59;;;;;;;10.23;5.70;;;;;;;6.19;80.79;95565.28;4994737;28;20183;-82
2023/04/25 23:13:25;;;;;;;8.77;4.63;;;;;;;6.24;80.92;95565.72;4976978;28;20632;-84
2023/04/25 23:15:50;;;;;;;6.90;5.07;;;;;;;6.20;81.25;95561.75;4987338;28;20207;-80
2023/04/25 23:18:16;;;;;;;6.70;5.00;;;;;;;6.19;80.18;95560.13;4974596;28;20248;-80
2023/04/25 23:20:41;;;;;;;7.20;5.40;;;;;;;6.20;80.76;95564.34;4991670;28;20187;-83
2023/04/25 23:23:07;;;;;;;7.83;5.40;;;;;;;6.19;80.33;95566.09;4969790;28;20556;-82
2023/04/25 23:25:32;;;;;;;7.83;4.90;;;;;;;6.17;80.59;95573.13;4962576;28;20198;-83
2023/04/25 23:27:57;;;;;;;6.80;5.60;;;;;;;6.18;80.65;95572.19;4982646;28;20215;-84
2023/04/25 23:30:23;;;;;;;7.80;4.97;;;;;;;6.19;81.02;95573.03;4984170;28;20199;-84
2023/04/25 23:32:48;;;;;;;9.13;5.03;;;;;;;6.21;81.55;95568.56;4971273;28;20218;-82
2023/04/25 23:35:14;;;;;;;10.93;5.43;;;;;;;6.18;80.95;95566.19;4978578;28;20226;-81
2023/04/25 23:37:39;;;;;;;8.13;5.17;;;;;;;6.19;80.56;95570.44;4974615;28;20462;-83
2023/04/25 23:40:09;;;;;;;7.03;5.23;;;;;;;6.17;80.08;95570.53;4994669;28;20290;-83
2023/04/25 23:42:35;;;;;;;10.33;5.23;;;;;;;6.21;80.02;95574.53;4993185;28;20797;-83
2023/04/25 23:45:01;;;;;;;9.33;5.27;;;;;;;6.13;79.66;95576.06;4992432;28;20704;-82
2023/04/25 23:47:26;;;;;;;8.40;5.30;;;;;;;6.15;79.80;95577.56;4969005;28;20195;-82
2023/04/25 23:49:51;;;;;;;8.03;4.70;;;;;;;6.11;79.16;95576.19;4975463;28;20214;-83
2023/04/25 23:52:17;;;;;;;8.80;5.00;;;;;;;6.13;79.74;95578.66;4992039;28;20183;-81
2023/04/25 23:54:42;;;;;;;9.73;5.27;;;;;;;6.14;79.54;95582.84;4962347;28;20558;-81
2023/04/25 23:57:07;;;;;;;8.00;4.50;;;;;;;6.12;79.59;95589.91;4973720;28;20212;-83
2023/04/25 23:59:32;;;;;;;8.80;5.20;;;;;;;6.00;80.64;95580.53;4980698;28;20233;-80
